Time;durP1;ratioP1;P1;durP2;ratioP2;P2;SDS_P1;SDS_P2;PMS_P1;PMS_P2;Temp;Humidity;BMP_temperature;BMP_pressure;BME280_temperature;BME280_humidity;BME280_pressure;Samples;Min_cycle;Max_cycle;Signal;HPM_P1;HPM_P2
2021/09/06 00:01:13;;;;;;;20.92;11.75;;;13.80;99.90;;;;;;5033456;28;20152;-73
2021/09/06 00:03:39;;;;;;;15.02;11.82;;;13.80;99.90;;;;;;5034678;28;20095;-73
2021/09/06 00:06:04;;;;;;;13.23;11.52;;;13.80;99.90;;;;;;5033808;28;20533;-71
2021/09/06 00:08:30;;;;;;;13.30;10.98;;;13.80;99.90;;;;;;5034722;28;20033;-73
2021/09/06 00:11:06;;;;;;;11.38;10.18;;;13.80;99.90;;;;;;5034559;28;20029;-71
2021/09/06 00:13:33;;;;;;;15.35;11.88;;;13.70;99.90;;;;;;5034851;28;20017;-73
2021/09/06 00:15:58;;;;;;;17.48;11.50;;;13.70;99.90;;;;;;5033981;28;20025;-72
2021/09/06 00:18:25;;;;;;;16.48;11.43;;;13.70;99.90;;;;;;5034413;28;20087;-72
2021/09/06 00:20:52;;;;;;;14.55;11.93;;;13.70;99.90;;;;;;5034551;28;20497;-72
2021/09/06 00:23:18;;;;;;;14.65;11.80;;;13.70;99.90;;;;;;5034601;28;20104;-73
2021/09/06 00:25:44;;;;;;;15.00;11.13;;;13.70;99.90;;;;;;5033616;28;20116;-71
2021/09/06 00:28:09;;;;;;;14.13;12.07;;;13.60;99.90;;;;;;5034454;28;20029;-71
2021/09/06 00:30:37;;;;;;;17.92;12.93;;;13.60;99.90;;;;;;5034269;28;20021;-71
2021/09/06 00:33:03;;;;;;;16.35;12.35;;;13.60;99.90;;;;;;5034310;28;20049;-71
2021/09/06 00:35:29;;;;;;;19.42;12.55;;;13.50;99.90;;;;;;5033930;28;20061;-71
2021/09/06 00:37:55;;;;;;;16.30;12.43;;;13.50;99.90;;;;;;5034231;28;20033;-71
2021/09/06 00:40:20;;;;;;;20.30;14.05;;;13.50;99.90;;;;;;5034018;28;20175;-73
2021/09/06 00:42:46;;;;;;;17.50;13.13;;;13.50;99.90;;;;;;5033994;28;20036;-74
2021/09/06 00:45:12;;;;;;;17.15;12.77;;;13.40;99.90;;;;;;5033515;28;20032;-71
2021/09/06 00:47:38;;;;;;;14.38;12.13;;;13.40;99.90;;;;;;5034196;28;20021;-71
2021/09/06 00:50:09;;;;;;;17.45;13.77;;;13.30;99.90;;;;;;5034563;28;20049;-73
2021/09/06 00:52:37;;;;;;;19.80;12.50;;;13.30;99.90;;;;;;5036166;28;20079;-74
2021/09/06 00:55:04;;;;;;;15.90;12.90;;;13.30;99.90;;;;;;5035469;28;20029;-73
2021/09/06 00:57:32;;;;;;;16.65;13.68;;;13.30;99.90;;;;;;5032970;28;20428;-72
2021/09/06 00:59:57;;;;;;;14.07;12.27;;;13.30;99.90;;;;;;5033802;28;20025;-74
2021/09/06 01:02:23;;;;;;;19.30;14.15;;;13.20;99.90;;;;;;5034327;28;20480;-73
2021/09/06 01:04:49;;;;;;;17.98;13.85;;;13.20;99.90;;;;;;5033217;28;20472;-72
2021/09/06 01:07:15;;;;;;;18.83;14.27;;;13.20;99.90;;;;;;5033854;28;20041;-73
2021/09/06 01:09:41;;;;;;;20.83;14.18;;;13.20;99.90;;;;;;5033577;28;20026;-74
2021/09/06 01:12:07;;;;;;;18.08;12.80;;;13.20;99.90;;;;;;5032309;28;20079;-74
2021/09/06 01:14:33;;;;;;;17.25;13.65;;;13.10;99.90;;;;;;5033176;28;20443;-74
2021/09/06 01:17:01;;;;;;;20.60;15.13;;;13.10;99.90;;;;;;5033584;28;20022;-73
2021/09/06 01:19:26;;;;;;;17.67;13.50;;;13.10;99.90;;;;;;5033907;28;20021;-71
2021/09/06 01:21:52;;;;;;;22.98;14.65;;;13.10;99.90;;;;;;5033563;28;20026;-72
2021/09/06 01:24:18;;;;;;;19.55;15.48;;;13.00;99.90;;;;;;5032997;28;20108;-72
2021/09/06 01:26:46;;;;;;;18.63;14.43;;;13.00;99.90;;;;;;5033102;28;20056;-73
2021/09/06 01:29:12;;;;;;;18.45;13.57;;;13.00;99.90;;;;;;5033186;28;20022;-72
2021/09/06 01:31:38;;;;;;;20.88;12.77;;;12.90;99.90;;;;;;5033131;28;20494;-73
2021/09/06 01:34:04;;;;;;;15.98;13.25;;;12.90;99.90;;;;;;5033369;28;20120;-73
2021/09/06 01:36:29;;;;;;;19.45;13.35;;;12.90;99.90;;;;;;5032422;28;20055;-73
2021/09/06 01:38:55;;;;;;;20.30;13.30;;;12.90;99.90;;;;;;5033363;28;20598;-72
2021/09/06 01:41:21;;;;;;;17.13;13.77;;;12.90;99.90;;;;;;5033142;28;20510;-72
2021/09/06 01:43:46;;;;;;;20.08;14.68;;;12.90;99.90;;;;;;5033162;28;20028;-72
2021/09/06 01:46:12;;;;;;;25.33;15.32;;;12.90;99.90;;;;;;5032608;28;20403;-73
2021/09/06 01:48:38;;;;;;;18.02;13.73;;;12.90;99.90;;;;;;5033611;28;20082;-74
2021/09/06 01:51:03;;;;;;;24.35;14.95;;;12.80;99.90;;;;;;5033044;28;20024;-73
2021/09/06 01:53:29;;;;;;;19.52;15.02;;;12.80;99.90;;;;;;5034778;28;20025;-73
2021/09/06 01:55:55;;;;;;;20.80;15.43;;;12.80;99.90;;;;;;5020342;28;20022;-72
2021/09/06 01:58:20;;;;;;;19.63;15.05;;;12.70;99.90;;;;;;5014068;28;20388;-74
2021/09/06 02:00:46;;;;;;;17.45;14.23;;;12.70;99.90;;;;;;5035640;22;20041;-73
2021/09/06 02:03:12;;;;;;;18.88;15.52;;;12.60;99.90;;;;;;5026846;28;20021;-73
2021/09/06 02:05:38;;;;;;;21.25;15.38;;;12.70;99.90;;;;;;5052236;28;20033;-73
2021/09/06 02:08:03;;;;;;;20.75;14.98;;;12.60;99.90;;;;;;5052288;28;20032;-73
2021/09/06 02:10:29;;;;;;;20.27;14.63;;;12.60;99.90;;;;;;5057228;28;20029;-74
2021/09/06 02:12:55;;;;;;;19.75;14.88;;;12.50;99.90;;;;;;5072581;28;20497;-74
2021/09/06 02:15:21;;;;;;;21.95;14.20;;;12.60;99.90;;;;;;5071909;28;20078;-73
2021/09/06 02:17:46;;;;;;;20.55;14.73;;;12.50;99.90;;;;;;5055022;28;20021;-73
2021/09/06 02:20:12;;;;;;;19.33;14.70;;;12.60;99.90;;;;;;5070539;28;20059;-74
2021/09/06 02:22:38;;;;;;;18.33;14.80;;;12.60;99.90;;;;;;5063431;28;20025;-73
2021/09/06 02:25:04;;;;;;;18.40;13.55;;;12.50;99.90;;;;;;5072213;28;20474;-73
2021/09/06 02:27:30;;;;;;;15.68;13.60;;;12.50;99.90;;;;;;5072776;28;20024;-74
2021/09/06 02:29:56;;;;;;;17.33;13.95;;;12.50;99.90;;;;;;5072107;28;20039;-73
2021/09/06 02:32:22;;;;;;;20.85;14.88;;;12.50;99.90;;;;;;5053807;28;20364;-73
2021/09/06 02:34:48;;;;;;;23.60;15.63;;;12.40;99.90;;;;;;5033627;28;20540;-74
2021/09/06 02:37:13;;;;;;;19.80;15.02;;;12.40;99.90;;;;;;5052235;28;20025;-73
2021/09/06 02:39:39;;;;;;;21.90;15.98;;;12.40;99.90;;;;;;5052062;28;20071;-73
2021/09/06 02:42:04;;;;;;;20.10;14.35;;;12.40;99.90;;;;;;5052050;28;20089;-74
2021/09/06 02:44:31;;;;;;;23.15;15.45;;;12.40;99.90;;;;;;5051390;28;20139;-73
2021/09/06 02:46:57;;;;;;;19.08;13.93;;;12.40;99.90;;;;;;5032921;28;20033;-74
2021/09/06 02:49:23;;;;;;;21.15;14.85;;;12.40;99.90;;;;;;5051594;28;20029;-74
2021/09/06 02:51:49;;;;;;;20.45;14.40;;;12.40;99.90;;;;;;5052007;28;20025;-74
2021/09/06 02:54:16;;;;;;;19.40;15.25;;;12.30;99.90;;;;;;5051607;28;20036;-74
2021/09/06 02:56:42;;;;;;;19.35;15.52;;;12.20;99.90;;;;;;5051680;28;20025;-74
2021/09/06 02:59:07;;;;;;;21.63;15.90;;;12.20;99.90;;;;;;5033654;28;20020;-74
2021/09/06 03:01:33;;;;;;;20.95;16.30;;;12.20;99.90;;;;;;5051364;28;20531;-74
2021/09/06 03:03:59;;;;;;;20.67;14.60;;;12.20;99.90;;;;;;5051929;28;20035;-74
2021/09/06 03:06:24;;;;;;;21.40;15.93;;;12.10;99.90;;;;;;5051937;28;20066;-75
2021/09/06 03:08:50;;;;;;;19.77;16.20;;;12.10;99.90;;;;;;5051974;28;20091;-75
2021/09/06 03:11:22;;;;;;;18.15;14.93;;;12.10;99.90;;;;;;5051545;28;20089;-75
2021/09/06 03:13:48;;;;;;;22.45;15.45;;;12.10;99.90;;;;;;5051603;28;20589;-75
2021/09/06 03:16:13;;;;;;;17.67;14.52;;;12.10;99.90;;;;;;5050718;28;20028;-74
2021/09/06 03:18:39;;;;;;;23.48;15.48;;;12.00;99.90;;;;;;5051424;28;20035;-73
2021/09/06 03:21:05;;;;;;;23.05;14.73;;;12.00;99.90;;;;;;5051074;28;20025;-73
2021/09/06 03:23:30;;;;;;;21.58;15.48;;;12.00;99.90;;;;;;5051565;28;20021;-74
2021/09/06 03:25:56;;;;;;;25.05;16.05;;;12.00;99.90;;;;;;5050744;28;20040;-74
2021/09/06 03:28:21;;;;;;;21.20;14.75;;;12.00;99.90;;;;;;5051560;28;20458;-73
2021/09/06 03:30:47;;;;;;;18.27;14.40;;;11.90;99.90;;;;;;5051068;28;20581;-73
2021/09/06 03:33:14;;;;;;;21.33;15.15;;;12.00;99.90;;;;;;5051958;28;20025;-74
2021/09/06 03:35:42;;;;;;;20.88;14.73;;;11.90;99.90;;;;;;5050857;28;20177;-74
2021/09/06 03:38:08;;;;;;;21.50;14.60;;;11.90;99.90;;;;;;5051391;28;20147;-74
2021/09/06 03:40:34;;;;;;;20.10;14.43;;;11.90;99.90;;;;;;5051430;28;20032;-74
2021/09/06 03:42:59;;;;;;;18.60;14.50;;;11.90;99.90;;;;;;5051363;28;20033;-74
2021/09/06 03:45:25;;;;;;;20.02;14.52;;;11.80;99.90;;;;;;5050388;28;20027;-75
2021/09/06 03:47:52;;;;;;;19.27;14.77;;;11.80;99.90;;;;;;5051110;28;20100;-74
2021/09/06 03:50:18;;;;;;;20.20;14.82;;;11.80;99.90;;;;;;5051071;28;20087;-75
2021/09/06 03:52:44;;;;;;;18.50;14.65;;;11.80;99.90;;;;;;5051462;28;20017;-75
2021/09/06 03:55:10;;;;;;;23.65;16.27;;;11.80;99.90;;;;;;5050561;28;20059;-74
2021/09/06 03:57:36;;;;;;;20.60;15.57;;;11.80;99.90;;;;;;5051352;28;20029;-74
2021/09/06 04:00:03;;;;;;;23.80;15.05;;;11.80;99.90;;;;;;5051195;28;20029;-74
2021/09/06 04:02:29;;;;;;;20.95;15.13;;;11.80;99.90;;;;;;5050716;28;20399;-74
2021/09/06 04:04:55;;;;;;;21.73;14.60;;;11.70;99.90;;;;;;5050602;28;20060;-74
2021/09/06 04:07:21;;;;;;;18.13;14.35;;;11.70;99.90;;;;;;5051026;28;20057;-74
2021/09/06 04:09:47;;;;;;;22.50;14.80;;;11.70;99.90;;;;;;5051058;28;20028;-75
2021/09/06 04:12:13;;;;;;;24.58;14.80;;;11.60;99.90;;;;;;5051240;28;20037;-74
2021/09/06 04:14:39;;;;;;;23.90;14.63;;;11.60;99.90;;;;;;5050481;28;20515;-74
2021/09/06 04:17:04;;;;;;;18.10;14.98;;;11.60;99.90;;;;;;5050879;28;20108;-74
2021/09/06 04:19:33;;;;;;;21.05;14.43;;;11.60;99.90;;;;;;5051060;28;20387;-73
2021/09/06 04:22:00;;;;;;;17.75;13.30;;;11.60;99.90;;;;;;5050938;28;20022;-74
2021/09/06 04:24:26;;;;;;;23.33;14.35;;;11.60;99.90;;;;;;5050379;28;20506;-74
2021/09/06 04:26:52;;;;;;;21.17;14.48;;;11.60;99.90;;;;;;5051189;28;20116;-74
2021/09/06 04:29:18;;;;;;;25.45;16.33;;;11.50;99.90;;;;;;5033065;28;20029;-73
2021/09/06 04:31:44;;;;;;;17.90;14.13;;;11.50;99.90;;;;;;5051296;28;20029;-74
2021/09/06 04:34:10;;;;;;;18.95;15.38;;;11.50;99.90;;;;;;5029407;28;20036;-78
2021/09/06 04:36:36;;;;;;;19.95;14.85;;;11.50;99.90;;;;;;5054114;28;20029;-77
2021/09/06 04:39:02;;;;;;;20.17;14.95;;;11.50;99.90;;;;;;5036263;28;20032;-79
2021/09/06 04:41:28;;;;;;;25.00;14.57;;;11.40;99.90;;;;;;5055697;28;20478;-79
2021/09/06 04:43:53;;;;;;;18.90;14.90;;;11.50;99.90;;;;;;5074798;28;20031;-77
2021/09/06 04:46:19;;;;;;;21.48;15.85;;;11.50;99.90;;;;;;5055918;28;20020;-76
2021/09/06 04:48:45;;;;;;;20.25;15.75;;;11.40;99.90;;;;;;5082404;28;20025;-78
2021/09/06 04:51:13;;;;;;;20.75;15.98;;;11.40;99.90;;;;;;5076228;28;20017;-79
2021/09/06 04:53:40;;;;;;;23.90;15.35;;;11.40;99.90;;;;;;5037914;28;20024;-78
2021/09/06 04:56:06;;;;;;;19.80;15.30;;;11.30;99.90;;;;;;5035765;28;20074;-78
2021/09/06 04:58:32;;;;;;;21.20;15.57;;;11.40;99.90;;;;;;5054342;28;20131;-78
2021/09/06 05:00:58;;;;;;;18.52;14.10;;;11.40;99.90;;;;;;5053483;28;20078;-78
2021/09/06 05:03:23;;;;;;;20.67;14.57;;;11.40;99.90;;;;;;5035552;28;20052;-76
2021/09/06 05:05:49;;;;;;;19.50;15.05;;;11.30;99.90;;;;;;5054287;28;20033;-79
2021/09/06 05:08:15;;;;;;;19.98;14.52;;;11.40;99.90;;;;;;5054905;28;20098;-78
2021/09/06 05:10:41;;;;;;;19.73;14.32;;;11.40;99.90;;;;;;5055001;28;20031;-78
2021/09/06 05:13:07;;;;;;;23.02;16.42;;;11.40;99.90;;;;;;5054179;28;20032;-76
2021/09/06 05:15:33;;;;;;;24.45;16.67;;;11.40;99.90;;;;;;5052778;28;20031;-78
2021/09/06 05:17:58;;;;;;;19.92;15.00;;;11.40;99.90;;;;;;5054241;28;20032;-79
2021/09/06 05:20:24;;;;;;;19.52;14.55;;;11.50;99.90;;;;;;5036282;28;20059;-79
2021/09/06 05:22:50;;;;;;;22.70;16.45;;;11.40;99.90;;;;;;5053811;28;20098;-79
2021/09/06 05:25:16;;;;;;;21.33;16.15;;;11.50;99.90;;;;;;5053663;28;20083;-79
2021/09/06 05:27:41;;;;;;;19.48;15.52;;;11.50;99.90;;;;;;5054455;28;20033;-77
2021/09/06 05:30:07;;;;;;;23.30;16.10;;;11.50;99.90;;;;;;5053817;28;20052;-78
2021/09/06 05:32:33;;;;;;;19.23;14.48;;;11.60;99.90;;;;;;5056031;28;20031;-79
2021/09/06 05:34:59;;;;;;;17.70;13.55;;;11.50;99.90;;;;;;5058730;28;20530;-80
2021/09/06 05:37:24;;;;;;;22.23;16.00;;;11.50;99.90;;;;;;5057918;28;20029;-79
2021/09/06 05:39:50;;;;;;;20.38;14.27;;;11.70;99.90;;;;;;5059553;28;20076;-81
2021/09/06 05:42:16;;;;;;;22.17;15.48;;;11.70;99.90;;;;;;5054335;28;20121;-77
2021/09/06 05:44:41;;;;;;;20.02;14.90;;;11.80;99.90;;;;;;5029683;28;20037;-78
2021/09/06 05:47:07;;;;;;;19.58;15.77;;;11.90;99.90;;;;;;5027845;28;20487;-78
2021/09/06 05:49:33;;;;;;;21.50;15.73;;;11.90;99.90;;;;;;5039976;28;20047;-78
2021/09/06 05:51:59;;;;;;;23.58;17.02;;;11.90;99.90;;;;;;5055202;28;20075;-79
2021/09/06 05:54:25;;;;;;;18.20;15.95;;;11.90;99.90;;;;;;5052586;28;20029;-79
2021/09/06 05:56:50;;;;;;;20.38;15.20;;;12.00;99.90;;;;;;5053851;28;20021;-80
2021/09/06 05:59:16;;;;;;;19.42;15.40;;;12.00;99.90;;;;;;5053330;28;20017;-78
2021/09/06 06:01:42;;;;;;;23.35;15.48;;;12.10;99.90;;;;;;5053105;28;20271;-77
2021/09/06 06:04:08;;;;;;;24.63;15.77;;;12.10;99.90;;;;;;5054094;28;20040;-80
2021/09/06 06:06:34;;;;;;;20.48;16.27;;;12.10;99.90;;;;;;5053795;28;20430;-76
2021/09/06 06:08:59;;;;;;;22.52;16.48;;;12.20;99.90;;;;;;5052905;28;20025;-78
2021/09/06 06:11:25;;;;;;;19.80;15.73;;;12.30;99.90;;;;;;5053067;28;20048;-77
2021/09/06 06:13:51;;;;;;;22.95;16.20;;;12.30;99.90;;;;;;5049782;28;20036;-79
2021/09/06 06:16:16;;;;;;;22.05;16.23;;;12.30;99.90;;;;;;5045840;28;20044;-76
2021/09/06 06:18:42;;;;;;;22.92;15.50;;;12.40;99.90;;;;;;5040396;28;20043;-76
2021/09/06 06:21:08;;;;;;;18.63;14.98;;;12.40;99.90;;;;;;5038294;28;20034;-76
2021/09/06 06:23:33;;;;;;;20.63;14.85;;;12.60;99.90;;;;;;5043203;28;20018;-77
2021/09/06 06:25:59;;;;;;;18.92;13.20;;;12.40;99.90;;;;;;5045219;28;20414;-75
2021/09/06 06:28:25;;;;;;;23.08;13.40;;;12.50;99.90;;;;;;5052614;28;20029;-77
2021/09/06 06:30:50;;;;;;;17.20;12.98;;;12.50;99.90;;;;;;5056190;28;20379;-79
2021/09/06 06:33:16;;;;;;;19.80;13.25;;;12.60;99.90;;;;;;5059144;28;20044;-79
2021/09/06 06:35:42;;;;;;;15.52;11.15;;;13.10;99.90;;;;;;5070096;28;20012;-77
2021/09/06 06:38:08;;;;;;;14.73;11.70;;;13.30;99.90;;;;;;5060903;28;20048;-78
2021/09/06 06:40:34;;;;;;;13.98;10.23;;;13.60;99.90;;;;;;5057491;28;20024;-79
2021/09/06 06:43:01;;;;;;;17.60;9.55;;;13.70;99.90;;;;;;5057233;28;20396;-79
2021/09/06 06:45:26;;;;;;;12.88;8.57;;;13.80;99.90;;;;;;5057200;28;20036;-79
2021/09/06 06:47:52;;;;;;;15.27;9.65;;;13.80;99.90;;;;;;5053066;28;20031;-78
2021/09/06 06:50:18;;;;;;;11.85;8.77;;;13.70;99.90;;;;;;5052020;28;20033;-76
2021/09/06 06:52:44;;;;;;;15.35;9.60;;;13.60;99.90;;;;;;5053296;28;20100;-79
2021/09/06 06:55:11;;;;;;;14.77;9.25;;;13.60;99.90;;;;;;5052120;28;20095;-79
2021/09/06 06:57:40;;;;;;;11.05;8.80;;;13.60;99.90;;;;;;5052597;28;20025;-77
2021/09/06 07:00:06;;;;;;;10.23;8.48;;;13.60;99.90;;;;;;5050284;28;20054;-74
2021/09/06 07:02:32;;;;;;;10.15;8.55;;;13.60;99.90;;;;;;5033544;28;20079;-76
2021/09/06 07:04:58;;;;;;;13.10;8.88;;;13.70;99.90;;;;;;5051386;28;20033;-77
2021/09/06 07:07:23;;;;;;;11.40;8.65;;;13.70;99.90;;;;;;5051574;28;20029;-76
2021/09/06 07:09:49;;;;;;;9.75;8.40;;;13.80;99.90;;;;;;5051599;28;20056;-76
2021/09/06 07:12:15;;;;;;;12.95;8.80;;;13.90;99.90;;;;;;5051943;28;20071;-77
2021/09/06 07:14:40;;;;;;;16.05;8.10;;;14.00;99.90;;;;;;5033166;28;20040;-76
2021/09/06 07:17:06;;;;;;;12.00;8.40;;;14.00;99.90;;;;;;5051239;28;20040;-76
2021/09/06 07:19:32;;;;;;;13.75;8.68;;;14.10;99.90;;;;;;5045621;28;20532;-75
2021/09/06 07:21:57;;;;;;;9.93;7.97;;;14.20;99.90;;;;;;5046319;28;20434;-76
2021/09/06 07:24:23;;;;;;;10.30;8.75;;;14.40;99.90;;;;;;5032222;28;20060;-78
2021/09/06 07:26:48;;;;;;;13.07;8.52;;;14.50;99.90;;;;;;5013997;28;20044;-75
2021/09/06 07:29:14;;;;;;;14.20;8.35;;;14.60;99.90;;;;;;5055080;28;20123;-76
2021/09/06 07:31:40;;;;;;;19.20;7.75;;;14.70;99.90;;;;;;5071702;28;20024;-78
2021/09/06 07:34:05;;;;;;;11.57;7.60;;;14.80;99.90;;;;;;5053220;28;20514;-78
2021/09/06 07:36:32;;;;;;;8.90;7.45;;;15.00;99.90;;;;;;5053125;28;20017;-79
2021/09/06 07:38:59;;;;;;;16.30;8.68;;;15.10;99.90;;;;;;5057718;28;20025;-80
2021/09/06 07:41:26;;;;;;;11.70;7.75;;;15.40;99.90;;;;;;5059149;28;20020;-79
2021/09/06 07:43:52;;;;;;;11.55;7.40;;;15.70;99.90;;;;;;5054116;28;20024;-79
2021/09/06 07:46:18;;;;;;;14.57;9.23;;;15.80;99.90;;;;;;5055676;28;20455;-79
2021/09/06 07:48:44;;;;;;;11.38;7.47;;;15.90;99.90;;;;;;5056280;28;20704;-78
2021/09/06 07:51:09;;;;;;;12.23;7.90;;;16.10;99.90;;;;;;5056151;28;20025;-78
2021/09/06 07:53:35;;;;;;;11.27;7.55;;;16.30;99.90;;;;;;5054358;28;20586;-78
2021/09/06 07:56:01;;;;;;;12.80;7.05;;;16.30;99.90;;;;;;5052886;28;20057;-79
2021/09/06 07:58:27;;;;;;;11.35;6.72;;;16.50;99.90;;;;;;5054994;28;20454;-78
2021/09/06 08:00:52;;;;;;;10.43;6.40;;;16.70;99.90;;;;;;5053985;28;20096;-77
2021/09/06 08:03:19;;;;;;;11.23;6.55;;;17.20;99.90;;;;;;5033949;28;20750;-77
2021/09/06 08:05:44;;;;;;;7.13;6.40;;;17.50;99.90;;;;;;5051236;28;20025;-77
2021/09/06 08:08:10;;;;;;;8.70;5.68;;;17.90;99.90;;;;;;5054403;28;20044;-77
2021/09/06 08:10:36;;;;;;;7.57;5.97;;;18.50;99.90;;;;;;5055375;28;20029;-78
2021/09/06 08:15:35;;;;;;;8.13;5.80;;;19.80;99.90;;;;;;5032616;28;20042;-77
2021/09/06 08:18:00;;;;;;;8.52;6.18;;;20.10;99.90;;;;;;5014871;28;20022;-77
2021/09/06 08:20:26;;;;;;;9.27;5.60;;;20.50;99.90;;;;;;5015063;28;20029;-75
2021/09/06 08:22:52;;;;;;;6.45;5.43;;;20.90;99.90;;;;;;5014986;28;20086;-76
2021/09/06 08:25:18;;;;;;;6.68;4.70;;;21.30;99.90;;;;;;5014258;28;20462;-76
2021/09/06 08:27:43;;;;;;;7.03;5.63;;;21.90;99.90;;;;;;5015181;28;20040;-82
2021/09/06 08:30:11;;;;;;;9.35;5.03;;;22.30;99.90;;;;;;5033763;28;20029;-78
2021/09/06 08:32:37;;;;;;;5.95;5.30;;;22.90;99.90;;;;;;5034794;28;20432;-76
2021/09/06 08:35:04;;;;;;;7.20;5.10;;;22.90;99.90;;;;;;5033607;28;20467;-76
2021/09/06 08:37:29;;;;;;;8.50;5.40;;;23.20;99.90;;;;;;5034844;28;20025;-78
2021/09/06 08:39:55;;;;;;;5.72;5.22;;;22.70;99.90;;;;;;5033299;28;20022;-77
2021/09/06 08:42:21;;;;;;;5.10;4.50;;;22.70;99.90;;;;;;5035001;28;20521;-77
2021/09/06 08:44:47;;;;;;;8.45;4.63;;;22.80;99.90;;;;;;5046510;28;20028;-77
2021/09/06 08:47:14;;;;;;;6.07;4.70;;;23.50;99.90;;;;;;5053611;28;20398;-78
2021/09/06 08:49:40;;;;;;;11.57;4.70;;;23.80;99.90;;;;;;5055090;28;20076;-78
2021/09/06 08:52:06;;;;;;;6.70;4.50;;;23.80;99.90;;;;;;5055295;28;20031;-77
2021/09/06 08:54:31;;;;;;;5.13;4.50;;;24.30;99.90;;;;;;5069864;28;20037;-78
2021/09/06 08:56:57;;;;;;;5.43;4.03;;;24.40;99.90;;;;;;5078530;28;20016;-80
2021/09/06 08:59:23;;;;;;;5.30;4.32;;;24.60;99.90;;;;;;5071681;28;20398;-77
2021/09/06 09:01:51;;;;;;;7.07;4.35;;;25.20;99.90;;;;;;5056339;28;20036;-77
2021/09/06 09:04:26;;;;;;;10.65;4.75;;;24.80;99.90;;;;;;5053322;28;20029;-77
2021/09/06 09:06:57;;;;;;;4.80;4.40;;;24.00;99.90;;;;;;5053542;28;20081;-78
2021/09/06 09:09:32;;;;;;;4.73;4.33;;;24.20;99.90;;;;;;5053680;28;20143;-77
2021/09/06 09:12:20;;;;;;;5.25;4.75;;;24.40;99.90;;;;;;5053637;28;20738;-76
2021/09/06 09:14:51;;;;;;;7.97;4.60;;;24.70;99.90;;;;;;5052338;28;20061;-78
2021/09/06 09:17:18;;;;;;;8.82;4.85;;;24.60;99.90;;;;;;5053125;28;20017;-77
2021/09/06 09:19:44;;;;;;;5.55;4.82;;;24.90;99.90;;;;;;5053372;28;20029;-76
2021/09/06 09:22:14;;;;;;;6.47;5.03;;;24.80;99.90;;;;;;5053470;28;20035;-78
2021/09/06 09:24:40;;;;;;;5.95;4.53;;;25.30;99.90;;;;;;5052493;28;20025;-77
2021/09/06 09:27:08;;;;;;;5.38;4.60;;;25.70;99.90;;;;;;5053387;28;20048;-77
2021/09/06 09:29:35;;;;;;;5.05;4.57;;;26.40;99.90;;;;;;5038657;28;20375;-75
2021/09/06 09:32:06;;;;;;;7.60;4.80;;;26.90;98.40;;;;;;5033488;28;20036;-76
2021/09/06 09:34:37;;;;;;;5.18;4.03;;;27.40;98.30;;;;;;5032588;28;20538;-76
2021/09/06 09:37:03;;;;;;;6.13;4.20;;;28.30;99.20;;;;;;5033216;28;20021;-77
2021/09/06 09:39:31;;;;;;;4.85;4.40;;;28.90;96.50;;;;;;5033074;28;20033;-75
2021/09/06 09:42:10;;;;;;;3.83;3.53;;;29.30;95.40;;;;;;5033026;28;20049;-74
2021/09/06 09:44:50;;;;;;;8.68;4.03;;;30.50;95.20;;;;;;5043442;28;20028;-74
2021/09/06 09:47:20;;;;;;;6.30;4.20;;;30.40;92.30;;;;;;5052606;28;20029;-76
2021/09/06 09:49:48;;;;;;;7.32;5.10;;;30.40;92.30;;;;;;5053237;28;20021;-76
2021/09/06 09:52:19;;;;;;;8.35;4.35;;;30.00;91.30;;;;;;5052793;28;20650;-75
2021/09/06 09:54:47;;;;;;;6.30;4.40;;;30.00;92.50;;;;;;5051754;28;20033;-74
2021/09/06 09:57:13;;;;;;;6.78;4.15;;;30.00;91.00;;;;;;5052794;28;20605;-76
2021/09/06 09:59:41;;;;;;;4.88;4.30;;;29.80;89.60;;;;;;5052339;28;20095;-76
2021/09/06 10:02:25;;;;;;;4.80;4.30;;;30.40;89.40;;;;;;5043642;28;20101;-75
2021/09/06 10:04:52;;;;;;;6.28;4.70;;;31.00;88.00;;;;;;5025124;28;20100;-76
2021/09/06 10:07:19;;;;;;;4.55;4.15;;;31.50;89.50;;;;;;5035326;28;20035;-78
2021/09/06 10:09:46;;;;;;;6.82;4.95;;;33.00;84.80;;;;;;5044342;28;20021;-77
2021/09/06 10:12:29;;;;;;;5.25;4.75;;;33.30;77.30;;;;;;5051986;28;20021;-76
2021/09/06 10:15:00;;;;;;;5.10;4.60;;;33.10;79.20;;;;;;5035679;28;20495;-78
2021/09/06 10:17:39;;;;;;;4.82;4.43;;;32.60;76.30;;;;;;5032526;28;20030;-78
2021/09/06 10:20:11;;;;;;;4.50;4.20;;;32.40;76.70;;;;;;5032498;28;20018;-78
2021/09/06 10:22:38;;;;;;;6.38;4.35;;;33.30;74.70;;;;;;5032830;28;20061;-77
2021/09/06 10:25:06;;;;;;;5.15;4.65;;;33.30;76.20;;;;;;5031510;28;20025;-76
2021/09/06 10:27:35;;;;;;;5.10;4.70;;;33.50;72.00;;;;;;5032415;28;20065;-76
2021/09/06 10:30:10;;;;;;;5.88;4.53;;;33.00;71.00;;;;;;5013238;28;20080;-77
2021/09/06 10:32:42;;;;;;;5.45;4.50;;;32.50;71.90;;;;;;5012497;28;20025;-71
2021/09/06 10:35:11;;;;;;;5.00;4.60;;;32.40;71.70;;;;;;5011624;28;20050;-71
2021/09/06 10:37:39;;;;;;;5.10;4.60;;;32.70;73.80;;;;;;5012401;28;20021;-69
2021/09/06 10:40:11;;;;;;;4.55;4.15;;;32.80;72.00;;;;;;5012285;28;20492;-71
2021/09/06 10:42:39;;;;;;;6.75;4.80;;;33.10;72.30;;;;;;5012574;28;20034;-70
2021/09/06 10:45:07;;;;;;;5.20;4.38;;;33.40;68.80;;;;;;5041543;28;20021;-71
2021/09/06 10:47:40;;;;;;;8.57;5.10;;;34.20;69.60;;;;;;5051799;28;20483;-71
2021/09/06 10:50:14;;;;;;;4.90;4.45;;;34.80;63.00;;;;;;5051980;28;20033;-71
2021/09/06 10:52:43;;;;;;;4.75;4.35;;;34.20;65.60;;;;;;5051624;28;20029;-71
2021/09/06 10:55:09;;;;;;;4.55;4.22;;;35.30;65.30;;;;;;5051263;28;20020;-69
2021/09/06 10:57:39;;;;;;;5.03;4.57;;;34.50;62.70;;;;;;5051972;28;20064;-71
2021/09/06 11:00:06;;;;;;;5.25;4.85;;;33.80;61.90;;;;;;5052237;28;20025;-70
2021/09/06 11:02:32;;;;;;;8.10;4.55;;;33.30;63.20;;;;;;5051550;28;20036;-71
2021/09/06 11:04:58;;;;;;;4.97;4.57;;;33.60;65.30;;;;;;5051446;28;20394;-71
2021/09/06 11:07:23;;;;;;;6.15;4.40;;;33.80;65.60;;;;;;5052256;28;20028;-71
2021/09/06 11:09:49;;;;;;;4.95;4.53;;;33.60;64.90;;;;;;5051706;28;20029;-72
2021/09/06 11:12:15;;;;;;;4.88;4.45;;;32.70;61.30;;;;;;5051628;28;20025;-70
2021/09/06 11:14:41;;;;;;;6.00;4.50;;;32.60;62.60;;;;;;5050706;28;20557;-69
2021/09/06 11:17:21;;;;;;;4.80;4.43;;;32.70;63.00;;;;;;5052979;28;20036;-70
2021/09/06 11:19:49;;;;;;;7.10;4.50;;;33.70;59.40;;;;;;5051768;28;20667;-70
2021/09/06 11:22:21;;;;;;;5.63;4.25;;;33.80;60.30;;;;;;5051815;28;20059;-70
2021/09/06 11:24:48;;;;;;;5.90;4.50;;;33.70;59.20;;;;;;5051017;28;20501;-70
2021/09/06 11:27:30;;;;;;;4.88;4.47;;;33.20;60.90;;;;;;5051545;28;20479;-70
2021/09/06 11:29:58;;;;;;;4.43;4.13;;;33.00;61.00;;;;;;5051263;28;20425;-69
2021/09/06 11:32:24;;;;;;;4.28;3.97;;;33.90;59.00;;;;;;5052243;28;20387;-68
2021/09/06 11:35:01;;;;;;;6.03;4.80;;;33.90;60.90;;;;;;5050846;28;20055;-70
2021/09/06 11:37:26;;;;;;;5.03;4.65;;;33.80;60.20;;;;;;5051044;28;20055;-69
2021/09/06 11:39:53;;;;;;;4.85;4.45;;;33.80;57.70;;;;;;5051104;28;20044;-71
2021/09/06 11:42:19;;;;;;;5.28;4.78;;;33.80;56.70;;;;;;5029318;28;20033;-71
2021/09/06 11:44:46;;;;;;;4.60;4.30;;;34.20;58.60;;;;;;5047092;28;20387;-71
2021/09/06 11:47:12;;;;;;;4.88;4.47;;;33.70;58.50;;;;;;5055553;28;20148;-71
2021/09/06 11:49:38;;;;;;;4.93;4.53;;;33.60;60.00;;;;;;5055313;28;20075;-72
2021/09/06 11:52:09;;;;;;;8.38;4.68;;;33.70;59.20;;;;;;5055390;28;20537;-72
2021/09/06 11:54:43;;;;;;;4.72;4.43;;;33.20;58.40;;;;;;5054259;28;20393;-71
2021/09/06 11:57:11;;;;;;;4.68;4.38;;;32.60;59.40;;;;;;5055627;28;20538;-72
2021/09/06 11:59:38;;;;;;;4.72;4.43;;;32.70;59.80;;;;;;5055803;28;20025;-71
2021/09/06 12:02:11;;;;;;;5.78;5.35;;;32.80;59.30;;;;;;5055522;28;20021;-71
2021/09/06 12:04:37;;;;;;;5.30;4.90;;;32.40;59.50;;;;;;5054341;28;20037;-73
2021/09/06 12:07:16;;;;;;;14.32;6.13;;;31.70;59.50;;;;;;5054013;28;20029;-72
2021/09/06 12:09:41;;;;;;;6.93;5.70;;;30.50;63.60;;;;;;5055493;28;20025;-71
2021/09/06 12:12:21;;;;;;;7.05;5.47;;;30.90;63.60;;;;;;5055007;28;20120;-71
2021/09/06 12:14:50;;;;;;;5.07;4.68;;;31.50;62.30;;;;;;5053546;28;20029;-71
2021/09/06 12:17:16;;;;;;;5.22;4.82;;;31.70;61.40;;;;;;5054830;28;20475;-71
2021/09/06 12:19:51;;;;;;;5.30;4.90;;;31.90;59.60;;;;;;5054766;28;20029;-71
2021/09/06 12:22:18;;;;;;;5.40;4.90;;;31.60;60.10;;;;;;5054936;28;20013;-71
2021/09/06 12:24:45;;;;;;;5.22;4.82;;;31.50;61.10;;;;;;5054220;28;20408;-71
2021/09/06 12:27:13;;;;;;;5.47;4.88;;;32.00;61.50;;;;;;5054825;28;20537;-71
2021/09/06 12:29:40;;;;;;;5.43;4.95;;;32.40;60.00;;;;;;5054568;28;20475;-71
2021/09/06 12:32:08;;;;;;;5.15;4.68;;;32.10;60.00;;;;;;5055152;28;20502;-71
2021/09/06 12:34:35;;;;;;;5.72;4.90;;;32.30;57.90;;;;;;5054682;28;20033;-72
2021/09/06 12:37:03;;;;;;;4.65;4.25;;;31.80;58.40;;;;;;5055532;28;20060;-73